Time;durP1;ratioP1;P1;durP2;ratioP2;P2;SDS_P1;SDS_P2;PMS_P1;PMS_P2;Temp;Humidity;BMP_temperature;BMP_pressure;BME280_temperature;BME280_humidity;BME280_pressure;Samples;Min_cycle;Max_cycle;Signal;HPM_P1;HPM_P2
2021/03/31 00:02:23;;;;;;;4.18;2.70;;;11.00;57.60;;;10.24;40.89;96028.38;5012696;28;20209;-83
2021/03/31 00:04:50;;;;;;;5.82;2.85;;;11.00;57.70;;;10.19;41.06;96022.81;5012917;28;20200;-82
2021/03/31 00:07:17;;;;;;;5.68;2.80;;;10.90;57.70;;;10.15;41.06;96025.91;5012981;28;20221;-82
2021/03/31 00:09:43;;;;;;;5.10;2.80;;;10.80;57.70;;;10.10;40.99;96016.69;5012500;28;20217;-82
2021/03/31 00:12:10;;;;;;;5.38;2.78;;;10.80;57.70;;;10.10;41.00;96016.69;5012497;28;20221;-83
2021/03/31 00:14:37;;;;;;;4.32;2.35;;;10.70;57.90;;;10.11;41.08;96020.16;5013007;28;20201;-83
2021/03/31 00:17:04;;;;;;;6.25;3.00;;;10.70;58.00;;;10.12;41.44;96019.19;5012407;28;20254;-82
2021/03/31 00:19:31;;;;;;;4.53;2.78;;;10.70;58.20;;;10.12;40.87;96015.72;5012512;28;20228;-82
2021/03/31 00:21:58;;;;;;;4.97;2.65;;;10.70;58.40;;;10.09;41.17;96012.47;4996346;28;20230;-82
2021/03/31 00:24:25;;;;;;;5.50;2.83;;;10.70;58.40;;;10.02;40.98;96000.97;5012470;28;20557;-82
2021/03/31 00:26:51;;;;;;;5.10;2.70;;;10.70;58.40;;;10.01;40.99;96006.34;4996242;28;20671;-83
2021/03/31 00:29:18;;;;;;;5.13;2.88;;;10.70;58.40;;;9.99;41.28;96016.22;5012319;28;20217;-83
2021/03/31 00:31:45;;;;;;;3.75;2.40;;;10.60;58.40;;;9.92;40.84;96005.53;4995897;28;20221;-83
2021/03/31 00:34:12;;;;;;;3.78;2.70;;;10.50;58.20;;;9.87;41.36;96003.38;5012532;28;20201;-83
2021/03/31 00:36:38;;;;;;;6.03;2.80;;;10.50;58.30;;;9.83;41.99;96003.88;4995796;28;20217;-83
2021/03/31 00:39:07;;;;;;;5.70;2.95;;;10.50;58.60;;;9.79;43.14;96016.50;5012046;28;20561;-81
2021/03/31 00:41:34;;;;;;;5.28;3.10;;;10.40;59.30;;;9.80;43.95;96007.63;5012012;28;20252;-82
2021/03/31 00:44:02;;;;;;;7.47;2.97;;;10.40;59.90;;;9.83;44.18;96006.50;5011928;28;20243;-82
2021/03/31 00:46:29;;;;;;;6.53;2.90;;;10.40;60.20;;;9.82;44.10;96003.06;4995708;28;20225;-83
2021/03/31 00:48:56;;;;;;;4.38;3.05;;;10.40;61.30;;;9.81;43.65;95992.75;4995764;28;20229;-82
2021/03/31 00:51:22;;;;;;;4.35;2.78;;;10.40;60.10;;;9.83;43.65;95996.03;4995391;28;20252;-83
2021/03/31 00:53:50;;;;;;;5.05;2.75;;;10.40;60.20;;;9.82;43.76;95984.72;5010789;28;20201;-83
2021/03/31 00:56:17;;;;;;;5.95;3.42;;;10.40;60.20;;;9.83;43.47;95988.97;4995576;28;20216;-82
2021/03/31 00:58:43;;;;;;;3.65;2.70;;;10.40;60.30;;;9.83;43.67;95986.34;5011872;28;20675;-82
2021/03/31 01:01:11;;;;;;;5.38;2.90;;;10.40;60.30;;;9.79;43.74;95985.03;5011916;28;20225;-83
2021/03/31 01:03:38;;;;;;;5.40;3.00;;;10.40;60.20;;;9.80;43.47;95994.53;5011686;28;20217;-83
2021/03/31 01:06:05;;;;;;;5.07;2.88;;;10.30;59.90;;;9.81;42.92;95992.75;5011769;28;20273;-82
2021/03/31 01:08:33;;;;;;;8.43;2.88;;;10.30;59.80;;;9.78;43.20;95984.22;5011838;28;20193;-82
2021/03/31 01:11:00;;;;;;;4.18;2.80;;;10.30;60.10;;;9.80;43.29;95984.03;4995516;28;20232;-82
2021/03/31 01:13:52;;;;;;;5.03;2.70;;;10.30;60.10;;;9.81;43.13;95988.31;5011540;28;20197;-83
2021/03/31 01:17:03;;;;;;;4.68;2.88;;;10.30;60.70;;;9.73;42.83;95986.50;5012065;28;20260;-82
2021/03/31 01:20:35;;;;;;;4.72;2.50;;;10.40;60.50;;;9.67;43.14;95992.38;5011473;28;20238;-82
2021/03/31 01:23:34;;;;;;;4.78;2.50;;;10.30;60.30;;;9.59;42.95;95990.56;4995359;28;20224;-82
2021/03/31 01:26:06;;;;;;;5.30;2.75;;;10.30;60.20;;;9.52;43.09;95988.72;5012896;28;20201;-83
2021/03/31 01:29:21;;;;;;;4.53;3.08;;;10.20;60.20;;;9.40;43.43;95978.53;4995355;28;20201;-82
2021/03/31 01:32:38;;;;;;;4.53;2.83;;;10.20;60.60;;;9.37;44.21;95978.03;5011579;28;20691;-82
2021/03/31 01:35:13;;;;;;;6.38;3.10;;;10.10;60.70;;;9.33;43.73;95982.75;4991073;28;20297;-83
2021/03/31 01:37:43;;;;;;;6.45;2.72;;;10.00;60.20;;;9.32;43.41;95977.69;4992024;28;20228;-81
2021/03/31 01:40:15;;;;;;;4.57;2.80;;;10.00;60.10;;;9.31;43.48;95976.84;5011494;28;20189;-82
2021/03/31 01:42:48;;;;;;;7.00;2.97;;;10.00;60.40;;;9.33;44.05;95968.84;4995484;28;20225;-82
2021/03/31 01:45:20;;;;;;;5.50;2.80;;;9.90;61.90;;;9.41;43.73;95974.09;4995150;28;20209;-82
2021/03/31 01:47:48;;;;;;;5.13;2.38;;;9.90;61.90;;;9.44;43.43;95974.59;5011570;28;20221;-82
2021/03/31 01:50:16;;;;;;;6.32;2.42;;;9.90;61.80;;;9.48;43.30;95982.16;5011486;28;20279;-83
2021/03/31 01:52:44;;;;;;;6.43;2.55;;;10.00;60.50;;;9.43;43.14;95969.53;5011452;28;20229;-83
2021/03/31 01:55:14;;;;;;;4.75;3.15;;;9.90;61.80;;;9.41;43.35;95976.72;5011771;28;20202;-82
2021/03/31 01:57:43;;;;;;;5.68;2.80;;;10.00;61.40;;;9.41;43.31;95980.19;4995149;28;20240;-82
2021/03/31 02:00:15;;;;;;;5.68;2.40;;;10.00;60.50;;;9.37;43.13;95976.22;5011590;28;20296;-83
2021/03/31 02:02:48;;;;;;;6.32;2.90;;;9.90;61.80;;;9.32;43.23;95975.88;4995282;28;20228;-82
2021/03/31 02:05:17;;;;;;;5.97;2.78;;;9.90;61.80;;;9.27;42.90;95971.09;4998208;28;20845;-82
2021/03/31 02:07:46;;;;;;;3.90;2.92;;;9.90;61.70;;;9.23;43.39;95963.75;4999025;28;20222;-82
2021/03/31 02:10:15;;;;;;;5.18;2.78;;;9.90;61.80;;;9.20;43.25;95967.47;4998449;28;20221;-83
2021/03/31 02:12:43;;;;;;;5.43;3.20;;;9.80;61.70;;;9.20;43.56;95970.09;4998579;28;20291;-83
2021/03/31 02:15:24;;;;;;;7.55;3.40;;;9.80;61.90;;;9.21;44.03;95971.72;4998423;28;20284;-83
2021/03/31 02:17:51;;;;;;;5.72;3.63;;;9.80;62.30;;;9.25;44.42;95961.78;4998075;28;20221;-82
2021/03/31 02:20:20;;;;;;;4.38;3.17;;;9.80;62.30;;;9.31;43.63;95966.38;4997927;28;20205;-83
2021/03/31 02:22:48;;;;;;;7.18;3.17;;;9.80;62.40;;;9.36;43.98;95963.28;4998305;28;20217;-82
2021/03/31 02:25:16;;;;;;;6.80;3.45;;;9.80;62.20;;;9.37;43.97;95957.88;4998647;28;20198;-83
2021/03/31 02:27:45;;;;;;;9.52;4.53;;;9.80;62.10;;;9.36;44.42;95955.44;5027561;28;20252;-83
2021/03/31 02:30:17;;;;;;;7.15;4.05;;;9.80;62.40;;;9.46;44.61;95956.13;5011167;28;20222;-83
2021/03/31 02:32:50;;;;;;;6.05;3.80;;;9.90;62.80;;;9.53;45.13;95951.06;5010330;28;20218;-83
2021/03/31 02:35:21;;;;;;;7.95;4.25;;;9.90;63.10;;;9.64;44.54;95958.63;5009094;28;20205;-82
2021/03/31 02:37:58;;;;;;;5.38;3.45;;;10.00;61.50;;;9.68;44.23;95946.88;4996521;28;20287;-82
2021/03/31 02:40:27;;;;;;;5.05;3.30;;;10.00;61.40;;;9.71;44.40;95946.53;4995970;28;20213;-82
2021/03/31 02:42:55;;;;;;;6.65;3.70;;;10.10;61.30;;;9.67;43.73;95945.22;4996281;28;20229;-83
2021/03/31 02:45:25;;;;;;;4.85;3.15;;;10.20;61.30;;;9.65;43.98;95949.78;5011487;28;20553;-82
2021/03/31 02:47:54;;;;;;;5.60;3.10;;;10.10;61.10;;;9.61;43.73;95956.34;5011624;28;20225;-81
2021/03/31 02:50:26;;;;;;;6.35;3.30;;;10.10;61.00;;;9.52;43.53;95939.78;4992825;28;20230;-83
2021/03/31 02:52:53;;;;;;;4.55;2.47;;;10.20;61.40;;;9.47;43.78;95952.50;5008089;28;20226;-82
2021/03/31 02:55:23;;;;;;;4.75;2.83;;;10.10;60.90;;;9.37;43.84;95947.41;5006321;28;20194;-82
2021/03/31 02:57:52;;;;;;;4.40;2.90;;;10.00;61.10;;;9.26;43.67;95938.06;4973387;28;20229;-81
2021/03/31 03:00:21;;;;;;;4.57;2.72;;;10.00;60.90;;;9.22;43.75;95946.41;4998092;28;20204;-81
2021/03/31 03:02:49;;;;;;;6.35;3.28;;;9.90;62.40;;;9.12;44.19;95939.47;5008443;28;20232;-82
2021/03/31 03:05:20;;;;;;;7.10;3.60;;;9.80;62.30;;;9.05;44.53;95935.03;5014144;28;20200;-82
2021/03/31 03:07:47;;;;;;;6.65;3.90;;;9.80;62.80;;;9.02;45.38;95936.16;4985652;28;20288;-81
2021/03/31 03:10:15;;;;;;;9.13;4.32;;;9.70;62.80;;;9.03;45.96;95929.94;4978109;28;20222;-81
2021/03/31 03:13:03;;;;;;;6.13;3.70;;;9.70;63.30;;;9.07;46.77;95936.50;4977657;28;20704;-82
2021/03/31 03:15:32;;;;;;;6.40;3.30;;;9.70;63.60;;;9.16;46.25;95932.13;4976624;28;20301;-81
2021/03/31 03:17:59;;;;;;;5.38;3.10;;;9.70;63.80;;;9.23;46.00;95919.25;4977435;28;20221;-82
2021/03/31 03:20:26;;;;;;;7.20;3.40;;;9.70;63.70;;;9.17;45.67;95915.44;4986658;28;20216;-83
2021/03/31 03:22:56;;;;;;;6.43;3.20;;;9.70;63.50;;;9.16;45.22;95924.28;5011446;28;20209;-82
2021/03/31 03:25:25;;;;;;;4.70;2.83;;;9.70;63.30;;;9.09;45.29;95918.03;4995127;28;20577;-82
2021/03/31 03:27:53;;;;;;;6.72;2.80;;;9.70;63.20;;;9.02;44.96;95917.84;4990177;28;20221;-83
2021/03/31 03:30:21;;;;;;;4.32;2.97;;;9.70;63.10;;;8.95;45.11;95919.47;5015069;28;20614;-82
2021/03/31 03:32:52;;;;;;;5.85;3.15;;;9.60;63.10;;;8.91;44.96;95923.34;5010485;28;20221;-81
2021/03/31 03:35:29;;;;;;;4.65;2.70;;;9.60;63.30;;;8.83;45.07;95921.50;4992126;28;20197;-81
2021/03/31 03:37:56;;;;;;;4.85;2.90;;;9.50;63.50;;;8.76;44.99;95920.50;5010583;28;20236;-81
2021/03/31 03:40:26;;;;;;;4.30;3.28;;;9.50;63.90;;;8.69;44.68;95916.84;5010393;28;20288;-82
2021/03/31 03:42:55;;;;;;;4.50;2.97;;;9.40;63.00;;;8.61;45.48;95922.88;4995291;28;20630;-81
2021/03/31 03:45:25;;;;;;;8.98;3.40;;;9.40;63.10;;;8.57;46.61;95914.50;5012622;28;20264;-81
2021/03/31 03:47:53;;;;;;;5.38;3.55;;;9.30;63.60;;;8.56;46.79;95901.59;5012357;28;20225;-81
2021/03/31 03:50:21;;;;;;;6.18;3.58;;;9.30;63.80;;;8.59;46.21;95907.34;5012108;28;20471;-82
2021/03/31 03:52:50;;;;;;;5.82;3.42;;;9.20;63.60;;;8.69;45.65;95911.63;5012260;28;20229;-81
2021/03/31 03:55:23;;;;;;;3.88;2.83;;;9.30;63.80;;;8.71;45.66;95907.06;4993931;28;20198;-81
2021/03/31 03:57:50;;;;;;;6.90;2.85;;;9.20;63.90;;;8.72;45.71;95909.53;5004065;28;20217;-81
2021/03/31 04:00:21;;;;;;;11.00;3.20;;;9.20;63.60;;;8.68;45.60;95913.44;5011698;28;20216;-79
2021/03/31 04:02:55;;;;;;;4.60;2.78;;;9.20;63.60;;;8.63;45.47;95908.66;4995115;28;20243;-80
2021/03/31 04:05:24;;;;;;;9.00;3.05;;;9.20;64.00;;;8.58;45.35;95910.09;5015513;28;20275;-80
2021/03/31 04:07:51;;;;;;;5.63;2.60;;;9.20;63.40;;;8.53;45.15;95907.13;4989085;28;20218;-79
2021/03/31 04:10:21;;;;;;;7.47;3.25;;;9.20;63.40;;;8.45;45.38;95897.41;5024570;28;20232;-79
2021/03/31 04:12:50;;;;;;;6.38;3.40;;;9.10;63.50;;;8.43;45.39;95900.16;5026658;28;20216;-79
2021/03/31 04:15:19;;;;;;;6.30;3.28;;;9.10;63.60;;;8.39;45.46;95898.03;5026351;28;20200;-78
2021/03/31 04:17:47;;;;;;;6.72;3.50;;;9.10;63.50;;;8.38;45.60;95897.19;4994042;28;20738;-80
2021/03/31 04:20:18;;;;;;;7.75;3.55;;;9.00;63.60;;;8.36;45.18;95898.31;5003841;28;20651;-81
2021/03/31 04:22:47;;;;;;;6.22;3.35;;;9.00;63.60;;;8.33;45.59;95908.09;5020735;28;20315;-81
2021/03/31 04:25:17;;;;;;;5.93;3.00;;;9.00;63.60;;;8.27;45.62;95906.09;5017653;28;20193;-81
2021/03/31 04:27:48;;;;;;;5.05;3.67;;;9.00;63.70;;;8.26;45.75;95906.25;5000927;28;20235;-81
2021/03/31 04:30:16;;;;;;;6.80;4.10;;;8.90;63.80;;;8.23;45.50;95907.38;5015778;28;20692;-80
2021/03/31 04:32:46;;;;;;;4.55;3.15;;;8.90;63.70;;;8.20;45.59;95912.91;5025565;28;20213;-81
2021/03/31 04:35:17;;;;;;;6.82;3.50;;;8.90;64.00;;;8.18;46.49;95913.06;5029613;28;20197;-80
2021/03/31 04:37:44;;;;;;;4.93;3.40;;;8.80;64.30;;;8.16;47.12;95908.97;5029884;28;20304;-80
2021/03/31 04:40:14;;;;;;;10.07;4.07;;;8.80;65.20;;;8.17;47.63;95910.63;5015107;28;20291;-80
2021/03/31 04:42:42;;;;;;;7.95;3.70;;;8.80;64.70;;;8.22;48.06;95907.56;5015266;28;20228;-81
2021/03/31 04:45:12;;;;;;;8.63;3.75;;;8.80;65.00;;;8.25;47.52;95905.47;5031696;28;20204;-81
2021/03/31 04:47:39;;;;;;;6.45;3.05;;;8.80;65.00;;;8.33;46.88;95908.09;5031590;28;20216;-81
2021/03/31 04:50:10;;;;;;;6.47;3.53;;;8.80;64.70;;;8.35;46.93;95905.34;5031457;28;20212;-82
2021/03/31 04:52:37;;;;;;;8.05;3.90;;;8.80;64.70;;;8.39;47.04;95903.25;5014932;28;20228;-81
2021/03/31 04:55:05;;;;;;;7.43;3.83;;;8.90;64.70;;;8.43;46.78;95907.19;5014887;28;20704;-82
2021/03/31 04:57:32;;;;;;;5.78;3.70;;;8.90;64.70;;;8.47;46.59;95898.94;5030259;28;20223;-81
2021/03/31 04:59:58;;;;;;;5.70;3.33;;;8.90;64.60;;;8.52;46.45;95902.88;5016450;28;20200;-82
2021/03/31 05:02:25;;;;;;;6.13;3.72;;;9.00;64.60;;;8.51;46.51;95896.00;4996312;28;20248;-81
2021/03/31 05:04:52;;;;;;;5.18;3.80;;;9.00;64.60;;;8.60;46.54;95900.31;5018837;28;20307;-82
2021/03/31 05:07:18;;;;;;;4.60;3.45;;;9.00;64.60;;;8.63;46.26;95903.44;5003577;28;20576;-82
2021/03/31 05:09:45;;;;;;;8.00;4.00;;;9.00;64.70;;;8.65;46.61;95906.72;5015743;28;20649;-82
2021/03/31 05:12:12;;;;;;;6.50;3.88;;;9.00;64.80;;;8.69;46.20;95909.84;5019796;28;20212;-82
2021/03/31 05:14:38;;;;;;;8.32;4.18;;;9.10;64.90;;;8.68;46.27;95900.34;5021048;28;20201;-81
2021/03/31 05:17:06;;;;;;;6.47;4.10;;;9.10;65.00;;;8.74;46.54;95906.75;5016514;28;20271;-80
2021/03/31 05:19:33;;;;;;;7.07;4.20;;;9.10;64.80;;;8.76;46.37;95907.41;5023613;28;20682;-81
2021/03/31 05:22:00;;;;;;;8.55;5.68;;;9.20;65.00;;;8.79;46.53;95907.13;5019654;28;20224;-81
2021/03/31 05:24:27;;;;;;;13.50;8.70;;;9.20;65.00;;;8.81;46.31;95908.59;5003551;28;20205;-81
2021/03/31 05:26:54;;;;;;;12.63;7.88;;;9.20;64.90;;;8.85;46.62;95908.28;5021674;28;20223;-82
2021/03/31 05:29:20;;;;;;;11.77;7.75;;;9.30;65.20;;;8.87;46.32;95909.75;5005506;28;20618;-81
2021/03/31 05:31:47;;;;;;;9.82;6.50;;;9.30;65.30;;;8.89;46.90;95907.81;5020000;28;20639;-81
2021/03/31 05:34:14;;;;;;;6.22;4.45;;;9.30;65.50;;;8.95;47.32;95899.34;5004150;28;20315;-81
2021/03/31 05:36:41;;;;;;;5.50;3.75;;;9.30;65.50;;;9.01;47.06;95905.75;5020910;28;20228;-81
2021/03/31 05:39:09;;;;;;;6.57;3.80;;;9.40;65.60;;;9.12;47.24;95908.06;5024039;28;20691;-82
2021/03/31 05:41:36;;;;;;;6.28;3.60;;;9.40;65.60;;;9.22;47.08;95907.94;5008640;28;20209;-82
2021/03/31 05:44:05;;;;;;;6.95;3.33;;;9.50;65.80;;;9.33;47.48;95898.16;5007320;28;20217;-82
2021/03/31 05:46:32;;;;;;;5.43;3.30;;;9.60;65.90;;;9.44;46.88;95896.06;5007565;28;20215;-81
2021/03/31 05:48:59;;;;;;;6.10;3.42;;;9.60;65.70;;;9.52;46.96;95894.44;5023683;28;20211;-81
2021/03/31 05:51:26;;;;;;;6.28;3.45;;;9.70;65.70;;;9.64;46.79;95893.13;5023418;28;20233;-81
2021/03/31 05:53:53;;;;;;;5.35;4.05;;;9.80;65.70;;;9.75;47.19;95895.47;5004176;28;20682;-81
2021/03/31 05:56:21;;;;;;;8.35;4.28;;;9.90;65.60;;;9.87;46.84;95898.56;5025641;28;20224;-81
2021/03/31 05:58:49;;;;;;;9.30;5.55;;;10.00;64.40;;;9.98;46.83;95899.25;5008066;28;20193;-83
2021/03/31 06:01:17;;;;;;;7.82;4.82;;;10.10;64.30;;;10.11;46.53;95902.19;5027801;28;20225;-81
2021/03/31 06:03:46;;;;;;;7.60;4.95;;;10.20;64.20;;;10.22;46.44;95895.81;5029495;28;20193;-81
2021/03/31 06:06:13;;;;;;;8.05;5.00;;;10.30;64.20;;;10.29;46.30;95888.91;5030954;28;20209;-82
2021/03/31 06:08:40;;;;;;;6.25;4.82;;;10.30;64.00;;;10.43;46.47;95890.06;5014688;28;20263;-81
2021/03/31 06:11:07;;;;;;;8.10;4.95;;;10.50;64.00;;;10.52;46.39;95894.31;5013356;28;20225;-80
2021/03/31 06:13:52;;;;;;;5.50;4.03;;;10.60;64.00;;;10.64;46.46;95896.59;5024466;28;20225;-80
2021/03/31 06:16:37;;;;;;;7.10;4.45;;;10.70;64.30;;;10.76;46.21;95894.44;5014482;28;20217;-81
2021/03/31 06:19:22;;;;;;;7.03;4.47;;;10.80;64.40;;;10.86;46.02;95884.53;5014324;28;20209;-80
2021/03/31 06:22:14;;;;;;;5.20;4.03;;;10.90;64.40;;;11.00;46.05;95893.53;5030756;28;20223;-82
2021/03/31 06:24:47;;;;;;;7.10;4.10;;;11.00;64.60;;;11.10;45.95;95894.13;5015217;28;20579;-81
2021/03/31 06:27:27;;;;;;;5.85;3.38;;;11.10;64.10;;;11.23;45.85;95893.59;5014196;28;20221;-80
2021/03/31 06:30:06;;;;;;;4.50;3.25;;;11.20;64.10;;;11.34;45.64;95893.22;5013823;28;20229;-79
2021/03/31 06:32:41;;;;;;;6.95;4.45;;;11.30;64.00;;;11.47;45.93;95887.38;5016894;28;20222;-80
2021/03/31 06:35:23;;;;;;;5.53;4.22;;;11.40;64.00;;;11.62;45.86;95892.72;5017315;28;20193;-81
2021/03/31 06:37:51;;;;;;;5.50;3.60;;;11.60;64.00;;;11.74;45.70;95889.69;4995111;28;20312;-80
2021/03/31 06:40:44;;;;;;;9.02;4.38;;;11.70;63.90;;;11.87;45.35;95894.38;4994110;28;20212;-80
2021/03/31 06:45:58;;;;;;;5.70;4.57;;;11.90;63.70;;;12.12;45.42;95880.06;5030056;28;20247;-80
2021/03/31 06:48:28;;;;;;;7.53;4.40;;;12.00;63.70;;;12.25;45.33;95876.00;5013788;28;20223;-81
2021/03/31 06:50:55;;;;;;;7.53;4.53;;;12.10;63.70;;;12.37;45.18;95877.22;5013597;28;20222;-80
2021/03/31 06:53:26;;;;;;;8.07;4.43;;;12.30;63.70;;;12.53;45.15;95880.69;5012746;28;20687;-80
2021/03/31 06:56:04;;;;;;;7.10;4.40;;;12.40;63.60;;;12.61;44.90;95873.53;5013698;28;20602;-81
2021/03/31 06:58:34;;;;;;;7.13;4.82;;;12.50;63.70;;;12.75;44.61;95878.97;5013413;28;20291;-80
2021/03/31 07:01:25;;;;;;;8.57;4.78;;;12.60;63.60;;;12.91;45.17;95877.97;5029573;28;20217;-80
2021/03/31 07:03:53;;;;;;;8.50;4.72;;;12.70;63.70;;;13.07;45.07;95879.59;5013219;28;20223;-80
2021/03/31 07:06:20;;;;;;;10.15;5.00;;;12.80;63.80;;;13.17;45.18;95868.78;4992713;28;20227;-79
2021/03/31 07:08:47;;;;;;;7.90;4.63;;;13.00;64.00;;;13.33;45.19;95865.09;5008387;28;20494;-79
2021/03/31 07:11:49;;;;;;;9.80;4.78;;;13.10;64.00;;;13.48;45.20;95863.28;4991445;28;20224;-80
2021/03/31 07:14:16;;;;;;;7.55;4.40;;;13.20;64.20;;;13.63;45.14;95863.22;4992681;28;20212;-80
2021/03/31 07:16:43;;;;;;;7.15;4.35;;;13.40;64.00;;;13.76;44.91;95860.72;4998747;28;20236;-80
2021/03/31 07:19:11;;;;;;;8.45;4.82;;;13.50;63.80;;;13.89;44.64;95857.41;5008145;28;20639;-80
2021/03/31 07:21:58;;;;;;;8.90;5.15;;;13.60;63.60;;;14.02;44.45;95856.69;4996102;28;20725;-81
2021/03/31 07:24:25;;;;;;;8.23;4.90;;;13.70;63.50;;;14.14;44.49;95851.72;4969634;28;20211;-80
2021/03/31 07:26:53;;;;;;;8.63;4.88;;;13.90;63.50;;;14.30;44.21;95853.28;4985349;28;20232;-80
2021/03/31 07:29:26;;;;;;;9.88;5.95;;;14.00;63.40;;;14.43;44.02;95844.66;5004151;28;20209;-80
2021/03/31 07:31:54;;;;;;;9.07;5.45;;;14.10;63.10;;;14.56;44.01;95851.81;5009945;28;20229;-82
2021/03/31 07:34:29;;;;;;;8.75;5.50;;;14.20;63.20;;;14.69;43.97;95853.78;5027497;28;20246;-82
2021/03/31 07:36:57;;;;;;;9.70;5.63;;;14.30;63.10;;;14.80;43.78;95847.13;5026408;28;20216;-81
2021/03/31 07:39:30;;;;;;;8.18;5.55;;;14.50;63.00;;;14.92;43.74;95847.41;5011325;28;20209;-80
2021/03/31 07:41:57;;;;;;;10.05;5.85;;;14.60;63.00;;;15.08;43.47;95852.34;5011391;28;20216;-81
2021/03/31 07:44:29;;;;;;;8.02;5.72;;;14.70;63.00;;;15.20;43.37;95853.41;4994722;28;20287;-81
2021/03/31 07:46:57;;;;;;;9.23;6.18;;;14.90;63.00;;;15.35;43.21;95855.09;5015964;28;20231;-81
2021/03/31 07:49:26;;;;;;;11.45;6.13;;;15.00;62.80;;;15.50;43.23;95855.75;5010728;28;20199;-82
2021/03/31 07:52:04;;;;;;;13.15;6.70;;;15.10;62.80;;;15.62;43.14;95847.22;5010414;28;20643;-81
2021/03/31 07:54:34;;;;;;;10.07;6.43;;;15.20;62.60;;;15.77;43.26;95852.31;5016710;28;20647;-80
2021/03/31 07:57:28;;;;;;;10.18;6.35;;;15.30;62.80;;;15.89;43.17;95853.38;4990756;28;20259;-80
2021/03/31 07:59:55;;;;;;;8.18;5.35;;;15.50;62.80;;;16.03;43.15;95853.41;4991035;28;20644;-80
2021/03/31 08:02:23;;;;;;;10.52;5.55;;;15.60;63.00;;;16.16;42.89;95845.47;4980716;28;20228;-81
2021/03/31 08:04:50;;;;;;;8.82;5.97;;;15.80;62.90;;;16.29;42.92;95842.81;4972836;28;20220;-81
2021/03/31 08:07:22;;;;;;;9.95;5.88;;;15.90;62.70;;;16.42;42.57;95846.50;4994828;28;20302;-81
2021/03/31 08:09:50;;;;;;;9.15;6.35;;;15.90;62.20;;;16.54;42.33;95851.97;5010561;28;20224;-81
2021/03/31 08:12:43;;;;;;;10.40;6.88;;;16.10;62.30;;;16.61;42.35;95839.53;5010256;28;20215;-82
2021/03/31 08:15:10;;;;;;;11.80;7.03;;;16.20;62.10;;;16.76;42.16;95840.13;5008437;28;20205;-82
2021/03/31 08:17:38;;;;;;;9.52;6.75;;;16.30;62.00;;;16.88;42.20;95847.41;5024515;28;20228;-82
2021/03/31 08:20:06;;;;;;;13.38;8.15;;;16.40;61.90;;;17.00;42.17;95844.97;5025702;28;20193;-82
2021/03/31 08:22:38;;;;;;;15.30;8.90;;;16.50;61.80;;;17.11;41.94;95834.53;5009664;28;20295;-81
2021/03/31 08:25:21;;;;;;;13.98;9.15;;;16.70;61.30;;;17.23;41.36;95839.16;5009565;28;20235;-82
2021/03/31 08:28:06;;;;;;;14.43;8.88;;;16.80;61.20;;;17.37;41.40;95831.94;5009956;28;20219;-81
2021/03/31 08:30:37;;;;;;;62.70;9.70;;;16.90;61.40;;;17.49;41.60;95830.28;5028065;28;20220;-82
2021/03/31 08:33:06;;;;;;;13.38;8.40;;;17.00;61.10;;;17.63;41.91;95823.03;5028204;28;20220;-83
2021/03/31 08:35:35;;;;;;;10.52;7.55;;;17.10;61.30;;;17.75;41.27;95821.34;5011556;28;20287;-82
2021/03/31 08:38:15;;;;;;;11.20;7.40;;;17.30;61.40;;;17.88;41.40;95820.44;5013181;28;20299;-82
2021/03/31 08:40:42;;;;;;;10.50;7.57;;;17.40;61.40;;;18.04;41.20;95816.47;5011783;28;20201;-82
2021/03/31 08:43:10;;;;;;;14.48;8.35;;;17.50;61.50;;;18.15;41.43;95809.66;4992267;28;20598;-81
2021/03/31 08:45:40;;;;;;;16.42;10.60;;;17.60;61.60;;;18.31;41.04;95818.91;4990151;28;20284;-82
2021/03/31 08:48:09;;;;;;;20.08;11.70;;;17.70;61.70;;;18.46;40.55;95805.28;4978633;28;20747;-82
2021/03/31 08:50:40;;;;;;;17.33;11.45;;;17.90;61.40;;;18.59;40.30;95801.69;4989694;28;20229;-82
2021/03/31 08:53:11;;;;;;;19.40;11.68;;;18.00;61.20;;;18.75;39.71;95802.94;5008583;28;20216;-82
2021/03/31 08:55:41;;;;;;;18.77;12.13;;;18.20;61.00;;;18.89;39.65;95806.25;5013422;28;20196;-82
2021/03/31 08:58:11;;;;;;;19.17;12.15;;;18.30;61.00;;;19.00;39.52;95802.06;5029057;28;20277;-81
2021/03/31 09:00:50;;;;;;;19.42;12.30;;;18.50;60.50;;;19.11;39.21;95789.88;5013057;28;20192;-81
2021/03/31 09:03:18;;;;;;;21.45;12.90;;;18.60;60.10;;;19.23;38.99;95796.06;5029641;28;20223;-82
2021/03/31 09:06:03;;;;;;;20.30;11.98;;;18.70;60.20;;;19.32;38.84;95794.72;5013146;28;20643;-81
2021/03/31 09:08:30;;;;;;;18.48;12.68;;;18.80;59.90;;;19.42;38.96;95796.00;5008103;28;20196;-81
2021/03/31 09:11:03;;;;;;;19.35;11.25;;;18.90;59.90;;;19.51;38.42;95786.69;5029857;28;20216;-81
2021/03/31 09:13:35;;;;;;;19.90;10.98;;;19.00;59.90;;;19.61;39.13;95781.59;5031471;28;20272;-82
2021/03/31 09:16:09;;;;;;;21.42;12.23;;;19.10;60.10;;;19.70;38.91;95789.28;5022779;28;20189;-80
2021/03/31 09:18:41;;;;;;;16.63;11.18;;;19.30;59.80;;;19.81;38.38;95791.13;4978910;28;20224;-82
2021/03/31 09:21:09;;;;;;;21.15;13.07;;;19.30;59.50;;;19.86;38.59;95771.84;4995735;28;20217;-83
2021/03/31 09:23:37;;;;;;;19.80;11.95;;;19.40;59.50;;;19.96;38.12;95775.56;4970507;28;20611;-80
2021/03/31 09:26:05;;;;;;;17.60;11.23;;;19.50;59.50;;;20.00;37.98;95763.41;5021353;28;20205;-80
2021/03/31 09:28:32;;;;;;;16.52;10.43;;;19.60;59.70;;;20.14;38.09;95765.84;5012727;28;20259;-80
2021/03/31 09:31:10;;;;;;;16.13;10.45;;;19.70;59.70;;;20.23;38.09;95763.69;4984432;28;20311;-79
2021/03/31 09:33:46;;;;;;;16.25;9.95;;;19.70;59.40;;;20.33;38.10;95752.44;5017140;28;20207;-80
2021/03/31 09:36:18;;;;;;;17.10;10.48;;;19.80;59.40;;;20.48;37.75;95758.91;5003314;28;20219;-81
2021/03/31 09:38:56;;;;;;;15.68;10.13;;;19.90;59.00;;;20.58;37.64;95765.50;5034973;28;20199;-80
2021/03/31 09:41:28;;;;;;;18.73;10.52;;;20.00;58.80;;;20.65;37.48;95760.84;5034688;28;20232;-79
2021/03/31 09:43:57;;;;;;;13.93;9.43;;;20.10;58.50;;;20.74;37.82;95759.47;5001088;28;20716;-80
2021/03/31 09:46:29;;;;;;;20.42;9.93;;;20.20;58.70;;;20.83;37.63;95754.59;5013997;28;20212;-79
2021/03/31 09:48:56;;;;;;;13.65;9.77;;;20.30;58.30;;;20.89;37.61;95742.97;5014818;28;20197;-80
2021/03/31 09:51:23;;;;;;;14.38;9.00;;;20.40;58.60;;;21.02;37.41;95749.06;5014518;28;20711;-79
2021/03/31 09:53:51;;;;;;;19.48;9.43;;;20.50;58.40;;;21.07;36.81;95742.00;4985765;28;20221;-79
2021/03/31 09:56:19;;;;;;;15.43;9.35;;;20.50;58.00;;;21.17;36.91;95741.38;4978868;28;20774;-80
2021/03/31 09:58:48;;;;;;;15.38;9.93;;;20.60;58.00;;;21.27;36.34;95746.09;4983105;28;20710;-79
2021/03/31 10:01:17;;;;;;;14.52;9.25;;;20.70;57.80;;;21.37;37.04;95740.94;5014237;28;20317;-79
2021/03/31 10:03:47;;;;;;;16.90;9.73;;;20.80;57.90;;;21.44;36.56;95735.44;5030869;28;20197;-80
2021/03/31 10:06:34;;;;;;;15.35;9.20;;;20.90;57.90;;;21.52;36.16;95734.22;5014702;28;20228;-79
2021/03/31 10:09:03;;;;;;;11.73;8.20;;;21.00;57.60;;;21.60;35.93;95739.22;5010908;28;20204;-79
2021/03/31 10:11:35;;;;;;;13.95;8.60;;;21.00;57.10;;;21.67;36.06;95731.84;4996029;28;20308;-77
2021/03/31 10:14:20;;;;;;;11.88;7.85;;;21.10;56.90;;;21.77;36.27;95719.75;4995574;28;20202;-77
2021/03/31 10:16:48;;;;;;;13.32;8.45;;;21.20;57.00;;;21.87;36.35;95728.72;5012387;28;20225;-78
2021/03/31 10:19:17;;;;;;;14.57;7.72;;;21.30;57.30;;;21.96;35.67;95717.59;4996155;28;20213;-78
2021/03/31 10:21:46;;;;;;;11.23;6.90;;;21.40;56.90;;;22.03;35.35;95712.91;5012802;28;20232;-78
2021/03/31 10:24:14;;;;;;;10.98;7.32;;;21.40;56.20;;;22.10;35.31;95716.22;5013402;28;20552;-77
2021/03/31 10:26:54;;;;;;;13.90;8.05;;;21.50;56.10;;;22.15;35.40;95707.47;5013155;28;20217;-78
2021/03/31 10:29:31;;;;;;;11.07;7.85;;;21.60;56.00;;;22.18;35.02;95702.44;5013882;28;20197;-79
2021/03/31 10:32:21;;;;;;;10.98;7.50;;;21.70;55.90;;;22.26;35.20;95703.88;5016807;28;20345;-78
2021/03/31 10:34:53;;;;;;;8.63;6.25;;;21.80;56.00;;;22.33;35.17;95696.50;4997124;28;20209;-78
2021/03/31 10:56:19;;;;;;;7.85;5.25;;;22.30;54.60;;;22.93;33.66;95678.00;5031511;28;20223;-80
2021/03/31 10:58:46;;;;;;;9.13;5.85;;;22.40;54.80;;;23.00;33.90;95670.56;5004236;28;20247;-80
2021/03/31 11:01:12;;;;;;;7.93;5.57;;;22.40;54.80;;;23.10;33.58;95671.75;5017487;28;20307;-81
2021/03/31 11:03:40;;;;;;;9.30;6.35;;;22.50;54.40;;;23.18;33.67;95672.13;5016728;28;20210;-80